sensor_id;sensor_type;location;lat;lon;timestamp;temperature;humidity
19044;DHT22;9654;52.302;8.120;2023-04-03T00:00:39;2.40;99.90
19044;DHT22;9654;52.302;8.120;2023-04-03T00:03:06;2.40;99.90
19044;DHT22;9654;52.302;8.120;2023-04-03T00:05:34;2.40;99.90
19044;DHT22;9654;52.302;8.120;2023-04-03T00:08:01;2.40;99.90
19044;DHT22;9654;52.302;8.120;2023-04-03T00:10:28;2.40;99.90
19044;DHT22;9654;52.302;8.120;2023-04-03T00:12:55;2.40;99.90
19044;DHT22;9654;52.302;8.120;2023-04-03T00:15:22;2.30;99.90
19044;DHT22;9654;52.302;8.120;2023-04-03T00:17:49;2.30;99.90
19044;DHT22;9654;52.302;8.120;2023-04-03T00:20:16;2.20;99.90
19044;DHT22;9654;52.302;8.120;2023-04-03T00:22:44;2.20;99.90
19044;DHT22;9654;52.302;8.120;2023-04-03T00:25:11;2.10;99.90
19044;DHT22;9654;52.302;8.120;2023-04-03T00:27:38;2.10;99.90
19044;DHT22;9654;52.302;8.120;2023-04-03T00:30:07;2.10;99.90
19044;DHT22;9654;52.302;8.120;2023-04-03T00:32:34;2.10;99.90
19044;DHT22;9654;52.302;8.120;2023-04-03T00:35:01;2.00;99.90
19044;DHT22;9654;52.302;8.120;2023-04-03T00:37:28;2.00;99.90
19044;DHT22;9654;52.302;8.120;2023-04-03T00:39:57;2.00;99.90
19044;DHT22;9654;52.302;8.120;2023-04-03T00:42:24;2.00;99.90
19044;DHT22;9654;52.302;8.120;2023-04-03T00:48:10;2.00;99.90
19044;DHT22;9654;52.302;8.120;2023-04-03T00:50:39;1.90;99.90
19044;DHT22;9654;52.302;8.120;2023-04-03T00:53:08;1.80;99.90
19044;DHT22;9654;52.302;8.120;2023-04-03T00:55:38;1.80;99.90
19044;DHT22;9654;52.302;8.120;2023-04-03T00:58:06;1.70;99.90
19044;DHT22;9654;52.302;8.120;2023-04-03T01:00:36;1.70;99.90
19044;DHT22;9654;52.302;8.120;2023-04-03T01:03:04;1.60;99.90
19044;DHT22;9654;52.302;8.120;2023-04-03T01:05:31;1.60;99.90
19044;DHT22;9654;52.302;8.120;2023-04-03T01:07:58;1.60;99.90
19044;DHT22;9654;52.302;8.120;2023-04-03T01:10:25;1.50;99.90
19044;DHT22;9654;52.302;8.120;2023-04-03T01:12:53;1.50;99.90
19044;DHT22;9654;52.302;8.120;2023-04-03T01:15:22;1.50;99.90
19044;DHT22;9654;52.302;8.120;2023-04-03T01:17:50;1.50;99.90
19044;DHT22;9654;52.302;8.120;2023-04-03T01:20:45;1.50;99.90
19044;DHT22;9654;52.302;8.120;2023-04-03T01:23:22;1.50;99.90
19044;DHT22;9654;52.302;8.120;2023-04-03T01:25:54;1.50;99.90
19044;DHT22;9654;52.302;8.120;2023-04-03T01:28:24;1.50;99.90
19044;DHT22;9654;52.302;8.120;2023-04-03T01:30:57;1.40;99.90
19044;DHT22;9654;52.302;8.120;2023-04-03T01:33:26;1.40;99.90
19044;DHT22;9654;52.302;8.120;2023-04-03T01:35:53;1.40;99.90
19044;DHT22;9654;52.302;8.120;2023-04-03T01:38:20;1.40;99.90
19044;DHT22;9654;52.302;8.120;2023-04-03T01:40:47;1.30;99.90
19044;DHT22;9654;52.302;8.120;2023-04-03T01:43:14;1.30;99.90
19044;DHT22;9654;52.302;8.120;2023-04-03T01:45:40;1.30;99.90
19044;DHT22;9654;52.302;8.120;2023-04-03T01:48:07;1.30;99.90
19044;DHT22;9654;52.302;8.120;2023-04-03T01:50:35;1.20;99.90
19044;DHT22;9654;52.302;8.120;2023-04-03T01:53:02;1.20;99.90
19044;DHT22;9654;52.302;8.120;2023-04-03T01:55:29;1.20;99.90
19044;DHT22;9654;52.302;8.120;2023-04-03T01:57:56;1.20;99.90
19044;DHT22;9654;52.302;8.120;2023-04-03T02:00:23;1.20;99.90
19044;DHT22;9654;52.302;8.120;2023-04-03T02:02:49;1.20;99.90
19044;DHT22;9654;52.302;8.120;2023-04-03T02:05:16;1.10;99.90
19044;DHT22;9654;52.302;8.120;2023-04-03T02:07:44;1.10;99.90
19044;DHT22;9654;52.302;8.120;2023-04-03T02:10:12;1.00;99.90
19044;DHT22;9654;52.302;8.120;2023-04-03T02:12:39;1.00;99.90
19044;DHT22;9654;52.302;8.120;2023-04-03T02:15:06;0.90;99.90
19044;DHT22;9654;52.302;8.120;2023-04-03T02:17:35;0.90;99.90
19044;DHT22;9654;52.302;8.120;2023-04-03T02:20:02;0.90;99.90
19044;DHT22;9654;52.302;8.120;2023-04-03T02:22:29;0.80;99.90
19044;DHT22;9654;52.302;8.120;2023-04-03T02:24:57;0.80;99.90
19044;DHT22;9654;52.302;8.120;2023-04-03T02:27:24;0.70;99.90
19044;DHT22;9654;52.302;8.120;2023-04-03T02:29:51;0.70;99.90
19044;DHT22;9654;52.302;8.120;2023-04-03T02:32:18;0.70;99.90
19044;DHT22;9654;52.302;8.120;2023-04-03T02:34:44;0.70;99.90
19044;DHT22;9654;52.302;8.120;2023-04-03T02:37:11;0.70;99.90
19044;DHT22;9654;52.302;8.120;2023-04-03T02:39:38;0.60;99.90
19044;DHT22;9654;52.302;8.120;2023-04-03T02:42:06;0.60;99.90
19044;DHT22;9654;52.302;8.120;2023-04-03T02:44:33;0.60;99.90
19044;DHT22;9654;52.302;8.120;2023-04-03T02:47:01;0.60;99.90
19044;DHT22;9654;52.302;8.120;2023-04-03T02:49:28;0.60;99.90
19044;DHT22;9654;52.302;8.120;2023-04-03T02:51:55;0.60;99.90
19044;DHT22;9654;52.302;8.120;2023-04-03T02:54:21;0.50;99.90
19044;DHT22;9654;52.302;8.120;2023-04-03T02:56:50;0.50;99.90
19044;DHT22;9654;52.302;8.120;2023-04-03T02:59:19;0.50;99.90
19044;DHT22;9654;52.302;8.120;2023-04-03T03:01:46;0.50;99.90
19044;DHT22;9654;52.302;8.120;2023-04-03T03:04:13;0.50;99.90
19044;DHT22;9654;52.302;8.120;2023-04-03T03:06:40;0.50;99.90
19044;DHT22;9654;52.302;8.120;2023-04-03T03:09:07;0.50;99.90
19044;DHT22;9654;52.302;8.120;2023-04-03T03:11:34;0.40;99.90
19044;DHT22;9654;52.302;8.120;2023-04-03T03:14:01;0.30;99.90
19044;DHT22;9654;52.302;8.120;2023-04-03T03:16:29;0.30;99.90
19044;DHT22;9654;52.302;8.120;2023-04-03T03:18:56;0.30;99.90
19044;DHT22;9654;52.302;8.120;2023-04-03T03:21:23;0.20;99.90
19044;DHT22;9654;52.302;8.120;2023-04-03T03:23:50;0.20;99.90
19044;DHT22;9654;52.302;8.120;2023-04-03T03:26:17;0.20;99.90
19044;DHT22;9654;52.302;8.120;2023-04-03T03:28:43;0.20;99.90
19044;DHT22;9654;52.302;8.120;2023-04-03T03:31:11;0.20;99.90
19044;DHT22;9654;52.302;8.120;2023-04-03T03:33:39;0.10;99.90
19044;DHT22;9654;52.302;8.120;2023-04-03T03:36:06;0.10;99.90
19044;DHT22;9654;52.302;8.120;2023-04-03T03:38:33;0.10;99.90
19044;DHT22;9654;52.302;8.120;2023-04-03T03:41:00;0.00;99.90
19044;DHT22;9654;52.302;8.120;2023-04-03T03:43:27;0.00;99.90
19044;DHT22;9654;52.302;8.120;2023-04-03T03:45:54;0.00;99.90
19044;DHT22;9654;52.302;8.120;2023-04-03T03:48:21;-0.10;99.90
19044;DHT22;9654;52.302;8.120;2023-04-03T03:50:50;-0.10;99.90
19044;DHT22;9654;52.302;8.120;2023-04-03T03:53:17;-0.10;99.90
19044;DHT22;9654;52.302;8.120;2023-04-03T03:55:44;-0.10;99.90
19044;DHT22;9654;52.302;8.120;2023-04-03T03:58:11;-0.10;99.90
19044;DHT22;9654;52.302;8.120;2023-04-03T04:00:38;-0.20;99.90
19044;DHT22;9654;52.302;8.120;2023-04-03T04:03:05;-0.20;99.90
19044;DHT22;9654;52.302;8.120;2023-04-03T04:05:32;-0.20;99.90
19044;DHT22;9654;52.302;8.120;2023-04-03T04:08:00;-0.30;99.90
19044;DHT22;9654;52.302;8.120;2023-04-03T04:10:27;-0.30;99.90
19044;DHT22;9654;52.302;8.120;2023-04-03T04:12:54;-0.30;99.90
19044;DHT22;9654;52.302;8.120;2023-04-03T04:15:20;-0.30;99.90
19044;DHT22;9654;52.302;8.120;2023-04-03T04:17:48;-0.30;99.90
19044;DHT22;9654;52.302;8.120;2023-04-03T04:20:15;-0.30;99.90
19044;DHT22;9654;52.302;8.120;2023-04-03T04:22:42;-0.30;99.90
19044;DHT22;9654;52.302;8.120;2023-04-03T04:25:10;-0.30;99.90
19044;DHT22;9654;52.302;8.120;2023-04-03T04:27:37;-0.30;99.90
19044;DHT22;9654;52.302;8.120;2023-04-03T04:30:05;-0.40;99.90
19044;DHT22;9654;52.302;8.120;2023-04-03T04:32:32;-0.40;99.90
19044;DHT22;9654;52.302;8.120;2023-04-03T04:34:59;-0.40;99.90
19044;DHT22;9654;52.302;8.120;2023-04-03T04:37:26;-0.40;99.90
19044;DHT22;9654;52.302;8.120;2023-04-03T04:39:53;-0.50;99.90
19044;DHT22;9654;52.302;8.120;2023-04-03T04:42:21;-0.50;99.90
19044;DHT22;9654;52.302;8.120;2023-04-03T04:44:48;-0.50;99.90
19044;DHT22;9654;52.302;8.120;2023-04-03T04:47:15;-0.50;99.90
19044;DHT22;9654;52.302;8.120;2023-04-03T04:49:43;-0.60;99.90
19044;DHT22;9654;52.302;8.120;2023-04-03T04:52:10;-0.60;99.90
19044;DHT22;9654;52.302;8.120;2023-04-03T04:54:36;-0.60;99.90
19044;DHT22;9654;52.302;8.120;2023-04-03T04:57:03;-0.60;99.90
19044;DHT22;9654;52.302;8.120;2023-04-03T04:59:31;-0.60;99.90
19044;DHT22;9654;52.302;8.120;2023-04-03T05:01:58;-0.60;99.90
19044;DHT22;9654;52.302;8.120;2023-04-03T05:04:26;-0.60;99.90
19044;DHT22;9654;52.302;8.120;2023-04-03T05:06:53;-0.60;99.90
19044;DHT22;9654;52.302;8.120;2023-04-03T05:09:20;-0.60;99.90
19044;DHT22;9654;52.302;8.120;2023-04-03T05:11:47;-0.60;99.90
19044;DHT22;9654;52.302;8.120;2023-04-03T05:14:13;-0.60;99.90
19044;DHT22;9654;52.302;8.120;2023-04-03T05:16:42;-0.60;99.90
19044;DHT22;9654;52.302;8.120;2023-04-03T05:19:08;-0.60;99.90
19044;DHT22;9654;52.302;8.120;2023-04-03T05:21:35;-0.60;99.90
19044;DHT22;9654;52.302;8.120;2023-04-03T05:24:02;-0.60;99.90
19044;DHT22;9654;52.302;8.120;2023-04-03T05:26:29;-0.60;99.90
19044;DHT22;9654;52.302;8.120;2023-04-03T05:28:56;-0.60;99.90
19044;DHT22;9654;52.302;8.120;2023-04-03T05:31:23;-0.60;99.90
19044;DHT22;9654;52.302;8.120;2023-04-03T05:33:52;-0.60;99.90
19044;DHT22;9654;52.302;8.120;2023-04-03T05:36:19;-0.50;99.90
19044;DHT22;9654;52.302;8.120;2023-04-03T05:38:46;-0.50;99.90
19044;DHT22;9654;52.302;8.120;2023-04-03T05:41:13;-0.50;99.90
19044;DHT22;9654;52.302;8.120;2023-04-03T05:43:40;-0.50;99.90
19044;DHT22;9654;52.302;8.120;2023-04-03T05:46:10;-0.40;99.90
19044;DHT22;9654;52.302;8.120;2023-04-03T05:48:37;-0.40;99.90
19044;DHT22;9654;52.302;8.120;2023-04-03T05:51:06;-0.40;99.90
19044;DHT22;9654;52.302;8.120;2023-04-03T05:53:35;-0.40;99.90
19044;DHT22;9654;52.302;8.120;2023-04-03T05:56:02;-0.30;99.90
19044;DHT22;9654;52.302;8.120;2023-04-03T05:58:29;-0.30;99.90
19044;DHT22;9654;52.302;8.120;2023-04-03T06:00:56;-0.30;99.90
19044;DHT22;9654;52.302;8.120;2023-04-03T06:03:24;-0.20;99.90
19044;DHT22;9654;52.302;8.120;2023-04-03T06:05:51;-0.20;99.90
19044;DHT22;9654;52.302;8.120;2023-04-03T06:08:20;-0.10;99.90
19044;DHT22;9654;52.302;8.120;2023-04-03T06:10:46;-0.10;99.90
19044;DHT22;9654;52.302;8.120;2023-04-03T06:13:13;-0.10;99.90
19044;DHT22;9654;52.302;8.120;2023-04-03T06:15:40;-0.10;99.90
19044;DHT22;9654;52.302;8.120;2023-04-03T06:18:07;0.00;99.90
19044;DHT22;9654;52.302;8.120;2023-04-03T06:20:35;0.00;99.90
19044;DHT22;9654;52.302;8.120;2023-04-03T06:23:02;0.10;99.90
19044;DHT22;9654;52.302;8.120;2023-04-03T06:25:30;0.20;99.90
19044;DHT22;9654;52.302;8.120;2023-04-03T06:27:57;0.20;99.90
19044;DHT22;9654;52.302;8.120;2023-04-03T06:30:24;0.20;99.90
19044;DHT22;9654;52.302;8.120;2023-04-03T06:32:51;0.30;99.90
19044;DHT22;9654;52.302;8.120;2023-04-03T06:35:18;0.30;99.90
19044;DHT22;9654;52.302;8.120;2023-04-03T06:37:44;0.30;99.90
19044;DHT22;9654;52.302;8.120;2023-04-03T06:40:17;0.40;99.90
19044;DHT22;9654;52.302;8.120;2023-04-03T06:42:47;0.50;99.90
19044;DHT22;9654;52.302;8.120;2023-04-03T06:45:14;0.60;99.90
19044;DHT22;9654;52.302;8.120;2023-04-03T06:47:41;0.60;99.90
19044;DHT22;9654;52.302;8.120;2023-04-03T06:50:09;0.60;99.90
19044;DHT22;9654;52.302;8.120;2023-04-03T06:52:37;0.70;99.90
19044;DHT22;9654;52.302;8.120;2023-04-03T06:55:05;0.80;99.90
19044;DHT22;9654;52.302;8.120;2023-04-03T06:57:32;0.80;99.90
19044;DHT22;9654;52.302;8.120;2023-04-03T07:00:00;0.90;99.90
19044;DHT22;9654;52.302;8.120;2023-04-03T07:02:28;1.00;99.90
19044;DHT22;9654;52.302;8.120;2023-04-03T07:04:55;1.00;99.90
19044;DHT22;9654;52.302;8.120;2023-04-03T07:07:22;1.10;99.90
19044;DHT22;9654;52.302;8.120;2023-04-03T07:09:49;1.20;99.90
19044;DHT22;9654;52.302;8.120;2023-04-03T07:12:15;1.30;99.90
19044;DHT22;9654;52.302;8.120;2023-04-03T07:14:42;1.40;99.90
19044;DHT22;9654;52.302;8.120;2023-04-03T07:17:10;1.60;99.90
19044;DHT22;9654;52.302;8.120;2023-04-03T07:19:37;1.70;99.90
19044;DHT22;9654;52.302;8.120;2023-04-03T07:22:04;1.90;99.90
19044;DHT22;9654;52.302;8.120;2023-04-03T07:24:31;1.90;99.90
19044;DHT22;9654;52.302;8.120;2023-04-03T07:26:57;2.00;99.90
19044;DHT22;9654;52.302;8.120;2023-04-03T07:29:24;2.10;99.90
19044;DHT22;9654;52.302;8.120;2023-04-03T07:31:51;2.20;99.90
19044;DHT22;9654;52.302;8.120;2023-04-03T07:34:19;2.30;99.90
19044;DHT22;9654;52.302;8.120;2023-04-03T07:36:46;2.30;99.90
19044;DHT22;9654;52.302;8.120;2023-04-03T07:39:13;2.50;99.90
19044;DHT22;9654;52.302;8.120;2023-04-03T07:41:40;2.60;99.90
19044;DHT22;9654;52.302;8.120;2023-04-03T07:44:07;2.60;99.90
19044;DHT22;9654;52.302;8.120;2023-04-03T07:46:35;2.80;99.90
19044;DHT22;9654;52.302;8.120;2023-04-03T07:49:02;2.80;99.90
19044;DHT22;9654;52.302;8.120;2023-04-03T07:51:30;2.80;99.90
19044;DHT22;9654;52.302;8.120;2023-04-03T07:53:57;2.90;99.90
19044;DHT22;9654;52.302;8.120;2023-04-03T07:56:24;2.80;99.90
19044;DHT22;9654;52.302;8.120;2023-04-03T07:58:51;3.00;99.90
19044;DHT22;9654;52.302;8.120;2023-04-03T08:01:19;3.10;99.90
19044;DHT22;9654;52.302;8.120;2023-04-03T08:03:46;3.00;99.90
19044;DHT22;9654;52.302;8.120;2023-04-03T08:06:13;3.00;99.90
19044;DHT22;9654;52.302;8.120;2023-04-03T08:08:42;3.00;99.90
19044;DHT22;9654;52.302;8.120;2023-04-03T08:11:10;3.10;99.90
19044;DHT22;9654;52.302;8.120;2023-04-03T08:13:37;3.30;99.90
19044;DHT22;9654;52.302;8.120;2023-04-03T08:16:09;3.50;99.90
19044;DHT22;9654;52.302;8.120;2023-04-03T08:18:36;3.50;99.90
19044;DHT22;9654;52.302;8.120;2023-04-03T08:21:06;3.60;99.90
19044;DHT22;9654;52.302;8.120;2023-04-03T08:23:33;3.70;99.90
19044;DHT22;9654;52.302;8.120;2023-04-03T08:26:07;3.60;99.90
19044;DHT22;9654;52.302;8.120;2023-04-03T08:28:34;3.60;99.90
19044;DHT22;9654;52.302;8.120;2023-04-03T08:31:05;3.70;99.90
19044;DHT22;9654;52.302;8.120;2023-04-03T08:33:33;3.80;99.90
19044;DHT22;9654;52.302;8.120;2023-04-03T08:36:01;3.80;99.90
19044;DHT22;9654;52.302;8.120;2023-04-03T08:38:28;3.80;99.90
19044;DHT22;9654;52.302;8.120;2023-04-03T08:41:14;3.80;99.90
19044;DHT22;9654;52.302;8.120;2023-04-03T08:43:57;3.90;99.90
19044;DHT22;9654;52.302;8.120;2023-04-03T08:46:33;4.10;99.90
19044;DHT22;9654;52.302;8.120;2023-04-03T08:49:06;4.20;99.90
19044;DHT22;9654;52.302;8.120;2023-04-03T08:51:38;4.30;99.90
19044;DHT22;9654;52.302;8.120;2023-04-03T08:54:14;4.30;99.90
19044;DHT22;9654;52.302;8.120;2023-04-03T08:56:43;4.30;99.90
19044;DHT22;9654;52.302;8.120;2023-04-03T08:59:14;4.40;99.90
19044;DHT22;9654;52.302;8.120;2023-04-03T09:01:44;4.50;99.90
19044;DHT22;9654;52.302;8.120;2023-04-03T09:04:13;4.50;99.90
19044;DHT22;9654;52.302;8.120;2023-04-03T09:06:43;4.40;99.90
19044;DHT22;9654;52.302;8.120;2023-04-03T09:09:17;4.40;99.90
19044;DHT22;9654;52.302;8.120;2023-04-03T09:11:54;4.50;99.90
19044;DHT22;9654;52.302;8.120;2023-04-03T09:14:29;4.60;99.90
19044;DHT22;9654;52.302;8.120;2023-04-03T09:17:00;4.70;99.90
19044;DHT22;9654;52.302;8.120;2023-04-03T09:19:38;4.80;99.90
19044;DHT22;9654;52.302;8.120;2023-04-03T09:22:16;4.70;99.90
19044;DHT22;9654;52.302;8.120;2023-04-03T09:24:46;4.80;99.90
19044;DHT22;9654;52.302;8.120;2023-04-03T09:27:17;4.90;99.90
19044;DHT22;9654;52.302;8.120;2023-04-03T09:29:46;5.10;99.90
19044;DHT22;9654;52.302;8.120;2023-04-03T09:32:22;5.00;99.90
19044;DHT22;9654;52.302;8.120;2023-04-03T09:34:54;5.00;99.90
19044;DHT22;9654;52.302;8.120;2023-04-03T09:37:39;5.20;99.90
19044;DHT22;9654;52.302;8.120;2023-04-03T09:40:28;5.20;99.90
19044;DHT22;9654;52.302;8.120;2023-04-03T09:43:27;5.30;99.90
19044;DHT22;9654;52.302;8.120;2023-04-03T09:46:25;5.40;99.90
19044;DHT22;9654;52.302;8.120;2023-04-03T09:49:08;5.30;99.90
19044;DHT22;9654;52.302;8.120;2023-04-03T09:58:26;5.50;99.90
19044;DHT22;9654;52.302;8.120;2023-04-03T10:01:34;5.60;99.90
19044;DHT22;9654;52.302;8.120;2023-04-03T10:04:37;5.60;99.90
19044;DHT22;9654;52.302;8.120;2023-04-03T10:07:48;5.80;99.90
19044;DHT22;9654;52.302;8.120;2023-04-03T12:48:24;8.10;99.90
19044;DHT22;9654;52.302;8.120;2023-04-03T12:50:51;7.60;99.90
19044;DHT22;9654;52.302;8.120;2023-04-03T12:53:19;7.70;99.90
19044;DHT22;9654;52.302;8.120;2023-04-03T12:55:48;7.90;99.90
19044;DHT22;9654;52.302;8.120;2023-04-03T12:58:22;7.70;99.90
19044;DHT22;9654;52.302;8.120;2023-04-03T13:00:59;7.50;99.90
19044;DHT22;9654;52.302;8.120;2023-04-03T13:03:29;7.60;99.90
19044;DHT22;9654;52.302;8.120;2023-04-03T13:05:59;8.00;99.90
19044;DHT22;9654;52.302;8.120;2023-04-03T13:08:27;8.00;99.90
19044;DHT22;9654;52.302;8.120;2023-04-03T13:10:57;7.80;99.90
19044;DHT22;9654;52.302;8.120;2023-04-03T13:13:24;7.90;99.90
19044;DHT22;9654;52.302;8.120;2023-04-03T13:15:52;8.00;99.90
19044;DHT22;9654;52.302;8.120;2023-04-03T13:18:25;7.90;99.90
19044;DHT22;9654;52.302;8.120;2023-04-03T13:20:53;7.80;99.90
19044;DHT22;9654;52.302;8.120;2023-04-03T13:23:22;7.80;99.90
19044;DHT22;9654;52.302;8.120;2023-04-03T13:25:50;7.80;99.90
19044;DHT22;9654;52.302;8.120;2023-04-03T13:28:20;7.90;99.90
19044;DHT22;9654;52.302;8.120;2023-04-03T13:30:58;8.10;99.90
19044;DHT22;9654;52.302;8.120;2023-04-03T13:33:29;8.10;99.90
19044;DHT22;9654;52.302;8.120;2023-04-03T13:36:02;8.20;99.90
19044;DHT22;9654;52.302;8.120;2023-04-03T13:38:31;8.40;99.90
19044;DHT22;9654;52.302;8.120;2023-04-03T13:41:01;8.40;99.90
19044;DHT22;9654;52.302;8.120;2023-04-03T13:43:31;8.50;99.90
19044;DHT22;9654;52.302;8.120;2023-04-03T13:46:02;8.30;99.90
19044;DHT22;9654;52.302;8.120;2023-04-03T13:48:38;8.10;99.90
19044;DHT22;9654;52.302;8.120;2023-04-03T13:51:17;8.10;99.90
19044;DHT22;9654;52.302;8.120;2023-04-03T13:53:47;8.20;99.90
19044;DHT22;9654;52.302;8.120;2023-04-03T13:56:19;8.40;99.90
19044;DHT22;9654;52.302;8.120;2023-04-03T13:59:05;8.40;99.90
19044;DHT22;9654;52.302;8.120;2023-04-03T14:01:42;8.50;99.90
19044;DHT22;9654;52.302;8.120;2023-04-03T14:04:17;9.20;99.90
19044;DHT22;9654;52.302;8.120;2023-04-03T14:06:46;9.60;99.90
19044;DHT22;9654;52.302;8.120;2023-04-03T14:09:14;9.90;99.90
19044;DHT22;9654;52.302;8.120;2023-04-03T14:11:42;10.20;99.90
19044;DHT22;9654;52.302;8.120;2023-04-03T14:14:15;10.50;99.90
19044;DHT22;9654;52.302;8.120;2023-04-03T14:16:44;10.20;99.90
19044;DHT22;9654;52.302;8.120;2023-04-03T14:19:18;9.70;99.90
19044;DHT22;9654;52.302;8.120;2023-04-03T14:21:47;9.40;99.90
19044;DHT22;9654;52.302;8.120;2023-04-03T14:24:16;9.10;99.90
19044;DHT22;9654;52.302;8.120;2023-04-03T14:26:45;9.00;99.90
19044;DHT22;9654;52.302;8.120;2023-04-03T14:29:13;8.60;99.90
19044;DHT22;9654;52.302;8.120;2023-04-03T14:31:41;8.20;99.90
19044;DHT22;9654;52.302;8.120;2023-04-03T14:34:09;8.00;99.90
19044;DHT22;9654;52.302;8.120;2023-04-03T14:36:37;8.30;99.90
19044;DHT22;9654;52.302;8.120;2023-04-03T14:39:06;8.50;99.90
19044;DHT22;9654;52.302;8.120;2023-04-03T14:41:34;8.70;99.90
19044;DHT22;9654;52.302;8.120;2023-04-03T14:44:01;8.70;99.90
19044;DHT22;9654;52.302;8.120;2023-04-03T14:46:29;8.70;99.90
19044;DHT22;9654;52.302;8.120;2023-04-03T14:48:57;8.70;99.90
19044;DHT22;9654;52.302;8.120;2023-04-03T14:51:24;8.60;99.90
19044;DHT22;9654;52.302;8.120;2023-04-03T14:53:52;8.90;99.90
19044;DHT22;9654;52.302;8.120;2023-04-03T14:56:23;8.90;99.90
19044;DHT22;9654;52.302;8.120;2023-04-03T14:58:55;9.10;99.90
19044;DHT22;9654;52.302;8.120;2023-04-03T15:01:22;9.40;99.90
19044;DHT22;9654;52.302;8.120;2023-04-03T15:03:49;9.60;99.90
19044;DHT22;9654;52.302;8.120;2023-04-03T15:06:16;9.80;99.90
19044;DHT22;9654;52.302;8.120;2023-04-03T15:08:44;9.80;99.90
19044;DHT22;9654;52.302;8.120;2023-04-03T15:11:12;9.70;99.90
19044;DHT22;9654;52.302;8.120;2023-04-03T15:13:41;9.60;99.90
19044;DHT22;9654;52.302;8.120;2023-04-03T15:16:14;9.30;99.90
19044;DHT22;9654;52.302;8.120;2023-04-03T15:18:42;9.10;99.90
19044;DHT22;9654;52.302;8.120;2023-04-03T15:21:09;9.10;99.90
19044;DHT22;9654;52.302;8.120;2023-04-03T15:23:35;9.10;99.90
19044;DHT22;9654;52.302;8.120;2023-04-03T15:26:02;9.50;99.90
19044;DHT22;9654;52.302;8.120;2023-04-03T15:28:31;9.40;99.90
19044;DHT22;9654;52.302;8.120;2023-04-03T15:31:01;9.00;99.40
19044;DHT22;9654;52.302;8.120;2023-04-03T15:33:28;8.70;99.80
19044;DHT22;9654;52.302;8.120;2023-04-03T15:35:54;8.40;99.90
19044;DHT22;9654;52.302;8.120;2023-04-03T15:38:21;8.30;99.90
19044;DHT22;9654;52.302;8.120;2023-04-03T15:40:48;8.20;99.90
19044;DHT22;9654;52.302;8.120;2023-04-03T15:43:15;8.30;99.90
19044;DHT22;9654;52.302;8.120;2023-04-03T15:45:43;8.50;99.90
19044;DHT22;9654;52.302;8.120;2023-04-03T15:48:12;8.50;99.70
19044;DHT22;9654;52.302;8.120;2023-04-03T15:50:39;8.50;99.50
19044;DHT22;9654;52.302;8.120;2023-04-03T15:53:06;8.60;99.90
19044;DHT22;9654;52.302;8.120;2023-04-03T15:55:35;8.70;99.60
19044;DHT22;9654;52.302;8.120;2023-04-03T15:58:03;8.80;99.90
19044;DHT22;9654;52.302;8.120;2023-04-03T16:00:30;8.80;99.90
19044;DHT22;9654;52.302;8.120;2023-04-03T16:03:00;8.70;99.50
19044;DHT22;9654;52.302;8.120;2023-04-03T16:05:31;8.70;99.50
19044;DHT22;9654;52.302;8.120;2023-04-03T16:07:59;8.70;99.90
19044;DHT22;9654;52.302;8.120;2023-04-03T16:10:27;8.70;99.90
19044;DHT22;9654;52.302;8.120;2023-04-03T16:12:53;8.70;99.30
19044;DHT22;9654;52.302;8.120;2023-04-03T16:15:20;8.50;98.60
19044;DHT22;9654;52.302;8.120;2023-04-03T16:17:47;8.40;99.30
19044;DHT22;9654;52.302;8.120;2023-04-03T16:20:14;8.10;99.70
19044;DHT22;9654;52.302;8.120;2023-04-03T16:22:43;8.00;99.80
19044;DHT22;9654;52.302;8.120;2023-04-03T16:25:10;7.90;99.90
19044;DHT22;9654;52.302;8.120;2023-04-03T16:27:38;7.80;99.90
19044;DHT22;9654;52.302;8.120;2023-04-03T16:30:06;7.70;99.90
19044;DHT22;9654;52.302;8.120;2023-04-03T16:32:34;7.70;99.90
19044;DHT22;9654;52.302;8.120;2023-04-03T16:35:01;7.70;99.90
19044;DHT22;9654;52.302;8.120;2023-04-03T16:37:28;7.80;99.80
19044;DHT22;9654;52.302;8.120;2023-04-03T16:39:56;7.70;99.90
19044;DHT22;9654;52.302;8.120;2023-04-03T16:42:23;7.60;99.90
19044;DHT22;9654;52.302;8.120;2023-04-03T16:44:50;7.60;99.80
19044;DHT22;9654;52.302;8.120;2023-04-03T16:47:17;7.70;99.90
19044;DHT22;9654;52.302;8.120;2023-04-03T16:49:45;7.70;99.90
19044;DHT22;9654;52.302;8.120;2023-04-03T16:52:15;7.70;99.90
19044;DHT22;9654;52.302;8.120;2023-04-03T16:54:42;7.70;99.90
19044;DHT22;9654;52.302;8.120;2023-04-03T16:57:10;7.70;99.90
19044;DHT22;9654;52.302;8.120;2023-04-03T16:59:37;7.90;99.90
19044;DHT22;9654;52.302;8.120;2023-04-03T17:02:03;7.90;99.90
19044;DHT22;9654;52.302;8.120;2023-04-03T17:04:30;7.90;99.30
19044;DHT22;9654;52.302;8.120;2023-04-03T17:06:57;7.90;99.90
19044;DHT22;9654;52.302;8.120;2023-04-03T17:09:25;8.00;99.90
19044;DHT22;9654;52.302;8.120;2023-04-03T17:11:52;8.20;99.90
19044;DHT22;9654;52.302;8.120;2023-04-03T17:14:20;8.10;99.30
19044;DHT22;9654;52.302;8.120;2023-04-03T17:16:47;7.90;98.70
19044;DHT22;9654;52.302;8.120;2023-04-03T17:19:14;7.60;98.90
19044;DHT22;9654;52.302;8.120;2023-04-03T17:21:42;7.50;99.80
19044;DHT22;9654;52.302;8.120;2023-04-03T17:24:11;7.40;99.90
19044;DHT22;9654;52.302;8.120;2023-04-03T17:26:40;7.30;99.90
19044;DHT22;9654;52.302;8.120;2023-04-03T17:29:07;7.20;99.90
19044;DHT22;9654;52.302;8.120;2023-04-03T17:31:36;7.20;99.90
19044;DHT22;9654;52.302;8.120;2023-04-03T17:34:03;7.00;99.90
19044;DHT22;9654;52.302;8.120;2023-04-03T17:36:31;7.00;99.90
19044;DHT22;9654;52.302;8.120;2023-04-03T17:38:58;7.00;99.90
19044;DHT22;9654;52.302;8.120;2023-04-03T17:41:24;7.00;99.90
19044;DHT22;9654;52.302;8.120;2023-04-03T17:43:51;6.90;99.90
19044;DHT22;9654;52.302;8.120;2023-04-03T17:46:21;6.90;99.90
19044;DHT22;9654;52.302;8.120;2023-04-03T17:48:50;6.80;99.90
19044;DHT22;9654;52.302;8.120;2023-04-03T17:51:18;6.80;99.90
19044;DHT22;9654;52.302;8.120;2023-04-03T17:53:46;6.70;99.90
19044;DHT22;9654;52.302;8.120;2023-04-03T17:56:15;6.60;99.90
19044;DHT22;9654;52.302;8.120;2023-04-03T17:58:43;6.60;99.90
19044;DHT22;9654;52.302;8.120;2023-04-03T18:01:12;6.50;99.90
19044;DHT22;9654;52.302;8.120;2023-04-03T18:03:39;6.40;99.90
19044;DHT22;9654;52.302;8.120;2023-04-03T18:06:10;6.40;99.90
19044;DHT22;9654;52.302;8.120;2023-04-03T18:08:40;6.30;99.90
19044;DHT22;9654;52.302;8.120;2023-04-03T18:11:08;6.20;99.90
19044;DHT22;9654;52.302;8.120;2023-04-03T18:13:35;6.10;99.90
19044;DHT22;9654;52.302;8.120;2023-04-03T18:16:03;6.10;99.90
19044;DHT22;9654;52.302;8.120;2023-04-03T18:18:30;6.00;99.90
19044;DHT22;9654;52.302;8.120;2023-04-03T18:20:56;6.00;99.90
19044;DHT22;9654;52.302;8.120;2023-04-03T18:23:25;5.90;99.90
19044;DHT22;9654;52.302;8.120;2023-04-03T18:25:54;5.80;99.90
19044;DHT22;9654;52.302;8.120;2023-04-03T18:28:22;5.70;99.90
19044;DHT22;9654;52.302;8.120;2023-04-03T18:30:49;5.60;99.90
19044;DHT22;9654;52.302;8.120;2023-04-03T18:33:16;5.50;99.90
19044;DHT22;9654;52.302;8.120;2023-04-03T18:35:42;5.40;99.90
19044;DHT22;9654;52.302;8.120;2023-04-03T18:38:09;5.30;99.90
19044;DHT22;9654;52.302;8.120;2023-04-03T18:40:37;5.30;99.90
19044;DHT22;9654;52.302;8.120;2023-04-03T18:43:07;5.10;99.90
19044;DHT22;9654;52.302;8.120;2023-04-03T18:45:34;5.10;99.90
19044;DHT22;9654;52.302;8.120;2023-04-03T18:48:00;4.90;99.90
19044;DHT22;9654;52.302;8.120;2023-04-03T18:50:28;4.90;99.90
19044;DHT22;9654;52.302;8.120;2023-04-03T18:52:55;4.80;99.90
19044;DHT22;9654;52.302;8.120;2023-04-03T18:55:22;4.70;99.90
19044;DHT22;9654;52.302;8.120;2023-04-03T18:57:50;4.70;99.90